createdAt,value
2023-04-26T00:04:25.191Z,7.03
2023-04-26T00:09:28.748Z,7.05
2023-04-26T00:14:34.026Z,5.90
2023-04-26T00:19:38.606Z,6.43
2023-04-26T00:24:41.987Z,7.30
2023-04-26T00:29:46.738Z,8.00
2023-04-26T00:34:50.339Z,7.15
2023-04-26T00:39:54.482Z,7.28
2023-04-26T00:44:59.307Z,7.10
2023-04-26T00:50:03.692Z,7.53
2023-04-26T00:55:08.743Z,6.13
2023-04-26T01:00:16.273Z,6.13
2023-04-26T01:05:19.726Z,6.20
2023-04-26T01:10:23.356Z,9.50
2023-04-26T01:15:30.392Z,8.30
2023-04-26T01:20:34.790Z,7.65
2023-04-26T01:25:39.760Z,9.73
2023-04-26T01:30:43.294Z,4.72
2023-04-26T01:35:46.675Z,6.22
2023-04-26T01:40:51.541Z,5.13
2023-04-26T01:45:54.951Z,5.15
2023-04-26T01:51:07.498Z,4.97
2023-04-26T01:56:12.209Z,5.80
2023-04-26T02:01:15.661Z,4.38
2023-04-26T02:06:21.472Z,4.35
2023-04-26T02:11:26.989Z,4.53
2023-04-26T02:16:30.633Z,4.72
2023-04-26T02:21:34.083Z,5.15
2023-04-26T02:26:38.952Z,4.57
2023-04-26T02:31:43.547Z,4.82
2023-04-26T02:36:46.920Z,4.57
2023-04-26T02:41:52.439Z,9.68
2023-04-26T02:46:56.102Z,10.88
2023-04-26T02:51:59.567Z,6.22
2023-04-26T02:57:04.389Z,9.55
2023-04-26T03:02:08.187Z,6.35
2023-04-26T03:07:11.704Z,3.70
2023-04-26T03:12:16.591Z,5.03
2023-04-26T03:17:20.211Z,5.13
2023-04-26T03:22:24.236Z,4.13
2023-04-26T03:27:28.966Z,3.20
2023-04-26T03:32:32.566Z,3.75
2023-04-26T03:37:35.988Z,5.30
2023-04-26T03:42:43.988Z,5.65
2023-04-26T03:47:47.607Z,3.42
2023-04-26T03:52:51.274Z,4.18
2023-04-26T03:57:56.018Z,5.95
2023-04-26T04:03:00.315Z,5.60
2023-04-26T04:08:04.047Z,3.78
2023-04-26T04:13:08.931Z,5.72
2023-04-26T04:18:12.860Z,3.58
2023-04-26T04:23:18.460Z,3.92
2023-04-26T04:28:24.216Z,4.45
2023-04-26T04:33:28.471Z,4.38
2023-04-26T04:38:33.013Z,5.07
2023-04-26T04:43:38.262Z,5.30
2023-04-26T04:48:43.253Z,3.95
2023-04-26T04:53:46.888Z,3.72
2023-04-26T04:58:51.833Z,4.30
2023-04-26T05:03:58.339Z,4.13
2023-04-26T05:09:02.484Z,3.38
2023-04-26T05:14:07.657Z,2.15
2023-04-26T05:19:11.877Z,5.90
2023-04-26T05:24:15.693Z,3.08
2023-04-26T05:29:20.608Z,3.00
2023-04-26T05:34:36.662Z,3.73
2023-04-26T05:39:40.335Z,4.75
2023-04-26T05:44:45.617Z,5.47
2023-04-26T05:49:49.289Z,4.03
2023-04-26T05:54:53.198Z,4.82
2023-04-26T05:59:57.978Z,3.33
2023-04-26T06:05:02.002Z,5.25
2023-04-26T06:10:07.241Z,5.03
2023-04-26T06:15:14.029Z,4.10
2023-04-26T06:20:17.502Z,2.97
2023-04-26T06:25:21.225Z,4.07
2023-04-26T06:30:26.098Z,3.90
2023-04-26T06:35:30.349Z,4.47
2023-04-26T06:40:34.771Z,6.95
2023-04-26T06:45:40.551Z,4.55
2023-04-26T06:50:45.143Z,16.20
2023-04-26T06:55:48.474Z,8.93
2023-04-26T07:00:53.232Z,7.47
2023-04-26T07:05:57.448Z,4.63
2023-04-26T07:11:00.960Z,6.38
2023-04-26T07:16:06.324Z,6.07
2023-04-26T07:21:09.866Z,6.68
2023-04-26T07:26:13.305Z,7.65
2023-04-26T07:31:18.061Z,6.97
2023-04-26T07:36:23.074Z,4.20
2023-04-26T07:41:27.921Z,5.28
2023-04-26T07:46:34.295Z,6.75
2023-04-26T07:51:38.051Z,12.70
2023-04-26T07:56:41.438Z,7.90
2023-04-26T08:01:46.290Z,7.47
2023-04-26T08:06:49.821Z,8.57
2023-04-26T08:11:53.189Z,8.27
2023-04-26T08:16:58.120Z,11.55
2023-04-26T08:22:01.805Z,11.98
2023-04-26T08:27:05.888Z,8.80
2023-04-26T08:32:10.711Z,10.18
2023-04-26T08:37:15.209Z,10.32
2023-04-26T08:42:19.427Z,7.95
2023-04-26T08:47:35.111Z,9.45
2023-04-26T08:52:41.019Z,79.00
2023-04-26T08:57:46.424Z,55.22
2023-04-26T09:02:54.157Z,47.88
2023-04-26T09:08:02.121Z,45.97
2023-04-26T09:18:28.033Z,35.83
2023-04-26T09:23:31.703Z,32.90
2023-04-26T09:28:35.084Z,30.77
2023-04-26T09:34:00.154Z,30.05
2023-04-26T09:39:03.953Z,24.67
2023-04-26T09:44:07.898Z,21.85
2023-04-26T09:49:12.695Z,25.08
2023-04-26T09:54:16.316Z,20.75
2023-04-26T09:59:19.753Z,22.33
2023-04-26T10:04:24.755Z,21.67
2023-04-26T10:09:28.687Z,17.70
2023-04-26T10:14:32.506Z,19.83
2023-04-26T10:19:39.328Z,19.20
2023-04-26T10:24:44.882Z,16.83
2023-04-26T10:30:13.885Z,15.52
2023-04-26T10:35:19.198Z,20.15
2023-04-26T10:40:27.905Z,14.40
2023-04-26T10:45:31.607Z,19.33
2023-04-26T10:51:09.004Z,19.70
2023-04-26T10:56:12.654Z,17.08
2023-04-26T11:01:20.498Z,17.13
2023-04-26T11:06:26.752Z,13.05
2023-04-26T11:11:32.773Z,14.20
2023-04-26T11:16:36.364Z,11.90
2023-04-26T11:21:42.230Z,11.77
2023-04-26T11:26:53.133Z,11.80
2023-04-26T11:31:59.312Z,11.05
2023-04-26T11:37:06.395Z,11.40
2023-04-26T11:42:11.662Z,11.50
2023-04-26T11:47:15.118Z,9.32
2023-04-26T11:52:20.196Z,9.25
2023-04-26T11:57:23.576Z,11.63
2023-04-26T12:02:27.275Z,10.07
2023-04-26T12:07:37.686Z,10.50
2023-04-26T12:12:48.357Z,8.43
2023-04-26T12:18:01.267Z,9.60
2023-04-26T12:23:10.916Z,7.70
2023-04-26T12:28:14.651Z,8.77
2023-04-26T12:33:22.702Z,7.93
2023-04-26T12:38:27.757Z,10.85
2023-04-26T12:43:31.196Z,8.50
2023-04-26T12:48:34.578Z,8.18
2023-04-26T12:53:39.346Z,7.32
2023-04-26T12:58:42.709Z,7.30
2023-04-26T13:03:46.846Z,7.38
2023-04-26T13:08:51.829Z,9.10
2023-04-26T13:13:55.185Z,6.53
2023-04-26T13:18:58.620Z,7.63
2023-04-26T13:24:03.451Z,6.95
2023-04-26T13:29:06.884Z,9.75
2023-04-26T13:34:10.811Z,7.00
2023-04-26T13:39:16.495Z,7.15
2023-04-26T13:44:21.392Z,6.00
2023-04-26T13:49:26.257Z,6.47
2023-04-26T13:54:31.369Z,6.65
2023-04-26T13:59:34.835Z,5.85
2023-04-26T14:04:38.433Z,6.28
2023-04-26T14:09:43.494Z,7.03
2023-04-26T14:14:47.954Z,5.55
2023-04-26T14:19:52.904Z,6.05
2023-04-26T14:24:59.299Z,6.18
2023-04-26T14:30:02.791Z,5.97
2023-04-26T14:35:07.360Z,7.72
2023-04-26T14:40:14.043Z,11.45
2023-04-26T14:45:17.585Z,12.38
2023-04-26T14:50:21.258Z,20.90
2023-04-26T14:55:27.163Z,20.33
2023-04-26T15:00:31.282Z,17.50
2023-04-26T15:05:34.660Z,18.42
2023-04-26T15:10:39.509Z,10.68
2023-04-26T15:15:42.899Z,12.73
2023-04-26T15:20:46.261Z,10.77
2023-04-26T15:25:51.002Z,9.20
2023-04-26T15:31:03.536Z,10.13
2023-04-26T15:36:08.212Z,12.13
2023-04-26T15:41:13.170Z,13.13
2023-04-26T15:46:16.746Z,9.05
2023-04-26T15:51:20.249Z,9.85
2023-04-26T15:56:26.207Z,8.75
2023-04-26T16:01:31.142Z,9.02
2023-04-26T16:06:35.295Z,13.30
2023-04-26T16:11:40.023Z,9.07
2023-04-26T16:16:44.367Z,10.52
2023-04-26T16:21:47.898Z,7.10
2023-04-26T16:26:53.121Z,11.13
2023-04-26T16:31:56.830Z,13.05
2023-04-26T16:37:00.434Z,11.13
2023-04-26T16:42:06.473Z,7.95
2023-04-26T16:47:09.943Z,6.40
2023-04-26T16:52:13.377Z,9.77
2023-04-26T16:57:18.119Z,7.07
2023-04-26T17:02:22.200Z,6.82
2023-04-26T17:07:25.693Z,6.60
2023-04-26T17:12:30.453Z,8.32
2023-04-26T17:17:33.863Z,6.45
2023-04-26T17:22:37.297Z,5.72
2023-04-26T17:27:42.069Z,8.07
2023-04-26T17:32:45.751Z,6.82
2023-04-26T17:37:50.227Z,6.45
2023-04-26T17:42:55.320Z,6.05
2023-04-26T17:47:58.770Z,7.18
2023-04-26T17:53:04.071Z,8.20
2023-04-26T17:58:10.032Z,5.97
2023-04-26T18:03:13.763Z,8.57
2023-04-26T18:08:17.364Z,7.32
2023-04-26T18:13:22.313Z,7.43
2023-04-26T18:18:27.234Z,7.07
2023-04-26T18:23:31.377Z,6.13
2023-04-26T18:28:36.154Z,6.72
2023-04-26T18:33:39.533Z,5.57
2023-04-26T18:38:42.942Z,7.45
2023-04-26T18:43:47.674Z,8.90
2023-04-26T18:48:51.186Z,7.15
2023-04-26T18:53:54.635Z,11.15
2023-04-26T18:58:59.562Z,6.10
2023-04-26T19:04:03.723Z,6.95
2023-04-26T19:09:08.822Z,7.47
2023-04-26T19:14:13.575Z,7.55
2023-04-26T19:19:16.940Z,6.18
2023-04-26T19:24:20.388Z,6.35
2023-04-26T19:29:25.339Z,8.10
2023-04-26T19:34:28.935Z,8.60
2023-04-26T19:39:32.348Z,6.43
2023-04-26T19:44:39.275Z,5.30
2023-04-26T19:49:42.661Z,9.23
2023-04-26T19:54:46.069Z,6.03
2023-04-26T19:59:50.939Z,6.28
2023-04-26T20:04:54.308Z,8.00
2023-04-26T20:09:57.722Z,6.80
2023-04-26T20:15:02.607Z,6.45
2023-04-26T20:20:08.326Z,5.20
2023-04-26T20:25:12.533Z,6.30
2023-04-26T20:30:17.451Z,6.40
2023-04-26T20:35:20.848Z,5.50
2023-04-26T20:40:24.198Z,6.13
2023-04-26T20:45:29.019Z,5.97
2023-04-26T20:50:32.518Z,3.88
2023-04-26T20:55:36.619Z,6.10
2023-04-26T21:00:42.243Z,4.82
2023-04-26T21:05:45.666Z,5.43
2023-04-26T21:10:49.130Z,6.90
2023-04-26T21:15:53.938Z,4.53
2023-04-26T21:20:57.377Z,5.60
2023-04-26T21:26:00.851Z,4.03
2023-04-26T21:31:06.820Z,7.93
2023-04-26T21:36:11.278Z,4.22
2023-04-26T21:41:15.034Z,5.97
2023-04-26T21:46:19.912Z,5.70
2023-04-26T21:51:23.511Z,4.10
2023-04-26T21:56:26.980Z,4.60
2023-04-26T22:01:32.051Z,3.67
2023-04-26T22:06:35.551Z,5.43
2023-04-26T22:11:38.937Z,4.70
2023-04-26T22:16:43.738Z,8.25
2023-04-26T22:21:47.147Z,5.85
2023-04-26T22:26:50.612Z,4.43
2023-04-26T22:31:55.568Z,5.55
2023-04-26T22:37:06.217Z,5.22
2023-04-26T22:42:16.874Z,4.70
2023-04-26T22:47:22.924Z,5.18
2023-04-26T22:52:31.486Z,5.45
2023-04-26T22:57:35.688Z,3.72
2023-04-26T23:02:40.622Z,3.35
2023-04-26T23:07:44.509Z,4.22
2023-04-26T23:12:49.163Z,5.43
2023-04-26T23:17:53.952Z,4.88
2023-04-26T23:22:57.641Z,7.63
2023-04-26T23:28:01.052Z,6.45
2023-04-26T23:33:05.866Z,5.53
2023-04-26T23:38:11.221Z,4.57
2023-04-26T23:43:14.857Z,3.83
2023-04-26T23:48:19.641Z,5.90
2023-04-26T23:53:23.025Z,6.80
2023-04-26T23:58:26.734Z,4.50
